Time;durP1;ratioP1;P1;durP2;ratioP2;P2;SDS_P1;SDS_P2;PMS_P1;PMS_P2;Temp;Humidity;BMP_temperature;BMP_pressure;BME280_temperature;BME280_humidity;BME280_pressure;Samples;Min_cycle;Max_cycle;Signal;HPM_P1;HPM_P2
2022/09/28 00:01:54;;;;;;;3.60;2.90;;;;;;;21.51;63.16;100218.72;5072566;28;20184;-81
2022/09/28 00:04:20;;;;;;;3.88;3.10;;;;;;;21.46;63.21;100217.84;5072853;28;20032;-81
2022/09/28 00:06:46;;;;;;;4.15;2.95;;;;;;;21.53;63.36;100240.84;5072351;28;20040;-81
2022/09/28 00:09:13;;;;;;;3.30;2.60;;;;;;;21.52;63.36;100232.88;5072652;28;20040;-81
2022/09/28 00:11:38;;;;;;;4.75;2.88;;;;;;;21.40;63.49;100216.88;5055375;28;20111;-81
2022/09/28 00:14:06;;;;;;;5.03;2.75;;;;;;;21.45;63.60;100216.03;5072713;28;20167;-82
2022/09/28 00:16:37;;;;;;;4.70;3.38;;;;;;;21.51;63.43;100226.69;5072496;28;20033;-81
2022/09/28 00:19:04;;;;;;;6.43;3.03;;;;;;;21.52;63.62;100236.41;5072265;28;20533;-82
2022/09/28 00:21:31;;;;;;;3.45;2.85;;;;;;;21.51;63.53;100237.31;5072385;28;20060;-82
2022/09/28 00:24:14;;;;;;;5.35;3.22;;;;;;;21.52;63.57;100232.88;5071432;28;20021;-82
2022/09/28 00:26:51;;;;;;;5.05;2.80;;;;;;;21.52;63.77;100228.44;5046114;28;20430;-82
2022/09/28 00:29:43;;;;;;;3.58;2.83;;;;;;;21.51;63.64;100232.00;5070382;28;20499;-81
2022/09/28 00:32:10;;;;;;;5.45;3.20;;;;;;;21.49;63.74;100231.09;5051868;28;20599;-82
2022/09/28 00:34:42;;;;;;;5.32;3.03;;;;;;;21.25;63.64;100200.06;5059328;28;20055;-82
2022/09/28 00:37:08;;;;;;;6.78;3.13;;;;;;;21.51;63.80;100247.06;5072095;28;20086;-81
2022/09/28 00:39:37;;;;;;;4.75;2.97;;;;;;;21.44;63.77;100240.84;5069146;28;20458;-82
2022/09/28 00:42:04;;;;;;;4.00;2.78;;;;;;;21.51;63.84;100247.06;5062292;28;20029;-81
2022/09/28 00:44:37;;;;;;;3.63;2.80;;;;;;;21.49;63.58;100246.16;5055247;28;20056;-82
2022/09/28 00:47:07;;;;;;;4.70;2.95;;;;;;;21.48;63.73;100232.00;5071450;28;20616;-82
2022/09/28 00:49:39;;;;;;;4.75;2.80;;;;;;;21.45;63.69;100225.78;5071525;28;20048;-81
2022/09/28 00:52:06;;;;;;;4.38;3.00;;;;;;;21.50;63.60;100229.31;5071714;28;20451;-83
2022/09/28 00:54:32;;;;;;;3.65;2.67;;;;;;;21.44;63.65;100213.38;5042907;28;20028;-82
2022/09/28 00:57:00;;;;;;;3.97;2.97;;;;;;;21.48;63.76;100221.38;5053664;28;20032;-82
2022/09/28 00:59:25;;;;;;;3.88;3.13;;;;;;;21.50;63.61;100230.22;5071812;28;20413;-82
2022/09/28 01:01:51;;;;;;;4.13;2.53;;;;;;;21.50;63.58;100226.66;5056274;28;20023;-82
2022/09/28 01:04:17;;;;;;;;;;;;;;;21.53;63.55;100237.31;5072188;28;20047;-82
2022/09/28 01:06:44;;;;;;;4.80;3.05;;;;;;;21.47;63.68;100232.00;5071346;28;19912;-82
2022/09/28 01:09:11;;;;;;;5.45;3.10;;;;;;;21.46;63.76;100227.53;5054234;28;20028;-82
2022/09/28 01:11:37;;;;;;;4.00;2.88;;;;;;;21.48;63.70;100236.41;5053269;28;20485;-81
2022/09/28 01:14:05;;;;;;;5.05;2.80;;;;;;;21.45;63.45;100228.44;5071401;28;20104;-82
2022/09/28 01:16:38;;;;;;;3.38;2.85;;;;;;;21.43;63.55;100214.28;5054835;28;20425;-82
2022/09/28 01:19:28;;;;;;;3.80;2.78;;;;;;;21.47;63.55;100224.91;5071158;28;20482;-81
2022/09/28 01:22:11;;;;;;;4.50;2.90;;;;;;;21.47;63.45;100224.03;5070328;28;20078;-81
2022/09/28 01:25:06;;;;;;;3.42;2.75;;;;;;;21.48;63.36;100225.78;5051424;28;20079;-81
2022/09/28 01:27:43;;;;;;;3.00;2.67;;;;;;;21.36;63.43;100210.72;5031586;28;20039;-81
2022/09/28 01:30:17;;;;;;;3.95;2.78;;;;;;;21.41;63.45;100222.22;5050452;28;20067;-81
2022/09/28 01:32:51;;;;;;;3.78;2.80;;;;;;;21.48;63.39;100228.44;5051286;28;20043;-81
2022/09/28 01:35:26;;;;;;;4.43;3.05;;;;;;;21.46;63.35;100227.53;5049186;28;20044;-81
2022/09/28 01:38:02;;;;;;;4.18;2.60;;;;;;;21.45;63.38;100231.09;5069101;28;20119;-81
2022/09/28 01:40:29;;;;;;;2.72;2.40;;;;;;;21.37;63.29;100215.13;5052748;28;20069;-81
2022/09/28 01:43:12;;;;;;;3.80;2.55;;;;;;;21.46;63.25;100230.22;5053421;28;20114;-81
2022/09/28 01:45:44;;;;;;;3.45;2.60;;;;;;;21.44;63.27;100226.66;5070311;28;20013;-81
2022/09/28 01:48:12;;;;;;;3.50;2.70;;;;;;;21.44;63.18;100229.31;5052785;28;20097;-81
2022/09/28 01:50:40;;;;;;;3.40;2.63;;;;;;;21.41;63.28;100223.97;5052520;28;20017;-82
2022/09/28 01:53:12;;;;;;;4.05;2.35;;;;;;;21.40;63.29;100222.19;5053250;28;20337;-81
2022/09/28 01:55:44;;;;;;;3.40;2.42;;;;;;;21.32;63.24;100211.59;5052610;28;20021;-82
2022/09/28 01:58:14;;;;;;;3.08;2.50;;;;;;;21.38;63.42;100218.66;5075870;28;20029;-82
2022/09/28 02:00:42;;;;;;;2.95;2.47;;;;;;;21.33;63.44;100214.22;5059015;28;20091;-82
2022/09/28 02:03:17;;;;;;;3.65;2.38;;;;;;;21.28;63.26;100213.34;5059364;28;20085;-82
2022/09/28 02:05:56;;;;;;;3.22;2.40;;;;;;;21.30;63.30;100216.88;5077253;28;20021;-81
2022/09/28 02:08:32;;;;;;;5.15;2.75;;;;;;;21.39;63.22;100233.72;5077798;28;20028;-82
2022/09/28 02:11:05;;;;;;;3.15;2.30;;;;;;;21.38;63.17;100227.53;5062827;28;20020;-82
2022/09/28 02:13:40;;;;;;;3.83;2.67;;;;;;;21.38;63.02;100230.19;5068658;28;20029;-82
2022/09/28 02:16:15;;;;;;;2.72;2.45;;;;;;;21.40;63.09;100233.72;5072759;28;20020;-81
2022/09/28 02:18:41;;;;;;;4.00;2.35;;;;;;;21.34;63.15;100221.31;5077556;28;20017;-82
2022/09/28 02:21:42;;;;;;;3.25;2.70;;;;;;;21.38;62.98;100230.19;5071366;28;20104;-82
2022/09/28 02:24:16;;;;;;;2.70;2.50;;;;;;;21.34;62.83;100233.72;5076723;28;20036;-81
2022/09/28 02:26:43;;;;;;;3.95;2.22;;;;;;;21.29;62.93;100224.84;5064773;28;20029;-82
2022/09/28 02:29:09;;;;;;;2.30;2.10;;;;;;;21.35;62.68;100228.38;5077085;28;20052;-82
2022/09/28 02:31:35;;;;;;;3.45;2.53;;;;;;;21.29;62.63;100216.88;5072790;28;20394;-82
2022/09/28 02:34:00;;;;;;;2.47;2.00;;;;;;;21.26;62.57;100223.06;5067812;28;20021;-82
2022/09/28 02:36:27;;;;;;;2.22;2.03;;;;;;;21.14;62.86;100194.75;5076810;28;20021;-82
2022/09/28 02:38:54;;;;;;;3.42;2.38;;;;;;;21.34;62.80;100229.28;5077301;28;20028;-81
2022/09/28 02:41:50;;;;;;;2.95;2.17;;;;;;;21.38;62.80;100231.94;5076945;28;20029;-81
2022/09/28 02:44:56;;;;;;;2.33;2.00;;;;;;;21.37;62.81;100230.19;5059212;28;20056;-82
2022/09/28 02:47:43;;;;;;;2.40;2.15;;;;;;;21.33;62.81;100229.28;5064436;28;20409;-82
2022/09/28 02:50:14;;;;;;;2.10;1.90;;;;;;;21.30;62.98;100226.63;5056478;28;20489;-82
2022/09/28 02:52:46;;;;;;;3.28;2.05;;;;;;;21.32;62.79;100240.81;5076030;28;20033;-81
2022/09/28 02:55:25;;;;;;;4.85;1.92;;;;;;;21.31;62.72;100228.38;5076899;28;20016;-82
2022/09/28 02:58:00;;;;;;;2.20;2.00;;;;;;;21.32;62.82;100244.34;5057935;28;20028;-82
2022/09/28 03:00:26;;;;;;;3.35;2.30;;;;;;;21.35;62.84;100240.78;5070257;28;20031;-82
2022/09/28 03:03:04;;;;;;;2.30;2.00;;;;;;;21.30;62.75;100243.44;5070980;28;20028;-82
2022/09/28 03:06:04;;;;;;;2.35;1.98;;;;;;;21.28;62.74;100255.84;5056588;28;20028;-82
2022/09/28 03:08:40;;;;;;;3.17;2.00;;;;;;;21.29;62.75;100252.31;5070453;28;20029;-83
2022/09/28 03:11:13;;;;;;;2.38;2.17;;;;;;;21.31;62.72;100254.94;5070773;28;20111;-82
2022/09/28 03:13:39;;;;;;;2.33;1.90;;;;;;;21.28;62.75;100244.34;5049691;28;20467;-81
2022/09/28 03:16:13;;;;;;;2.63;1.90;;;;;;;21.27;62.71;100245.19;5048074;28;20025;-82
2022/09/28 03:18:39;;;;;;;2.25;2.00;;;;;;;21.25;62.54;100236.34;5061864;28;20028;-82
2022/09/28 03:21:05;;;;;;;;;;;;;;;21.32;62.44;100240.81;5063133;28;20017;-82
2022/09/28 03:23:31;;;;;;;3.33;1.85;;;;;;;21.17;62.75;100230.13;5067151;28;19920;-82
2022/09/28 03:25:56;;;;;;;2.38;2.00;;;;;;;21.21;62.61;100237.22;5071445;28;20029;-82
2022/09/28 03:28:22;;;;;;;3.58;1.90;;;;;;;21.29;62.64;100249.66;5073425;28;20132;-82
2022/09/28 03:30:48;;;;;;;1.73;1.60;;;;;;;21.31;62.53;100242.56;5073283;28;20067;-82
2022/09/28 03:33:14;;;;;;;2.33;1.90;;;;;;;21.26;62.57;100244.31;5065635;28;20485;-82
2022/09/28 03:35:40;;;;;;;2.03;1.77;;;;;;;21.22;62.61;100239.88;5067412;28;20107;-83
2022/09/28 03:38:05;;;;;;;2.88;2.03;;;;;;;21.20;62.44;100230.16;5056297;28;20028;-82
2022/09/28 03:40:31;;;;;;;1.83;1.73;;;;;;;21.22;62.44;100229.25;5054545;28;20025;-82
2022/09/28 03:42:58;;;;;;;2.03;1.83;;;;;;;21.21;62.32;100231.91;5068999;28;20044;-82
2022/09/28 03:45:24;;;;;;;2.05;1.83;;;;;;;21.20;62.47;100233.69;5072831;28;20074;-82
2022/09/28 03:47:49;;;;;;;3.22;1.95;;;;;;;21.22;62.47;100241.66;5070192;28;20135;-82
2022/09/28 03:50:15;;;;;;;2.05;1.90;;;;;;;21.24;62.28;100247.88;5072907;28;20382;-82
2022/09/28 03:52:41;;;;;;;2.05;1.83;;;;;;;21.24;62.18;100247.88;5073033;28;20425;-82
2022/09/28 03:55:07;;;;;;;2.15;1.70;;;;;;;21.17;61.96;100239.00;5072516;28;20175;-82
2022/09/28 03:57:32;;;;;;;2.03;1.80;;;;;;;21.20;62.21;100235.47;5073316;28;20024;-82
2022/09/28 03:59:58;;;;;;;3.55;2.00;;;;;;;21.20;62.25;100246.97;5072556;28;20108;-81
2022/09/28 04:02:24;;;;;;;1.67;1.58;;;;;;;21.19;62.32;100247.84;5072821;28;20481;-82
2022/09/28 04:04:49;;;;;;;1.70;1.60;;;;;;;21.09;61.89;100244.28;5072559;28;20028;-81
2022/09/28 04:07:15;;;;;;;1.95;1.73;;;;;;;21.19;62.08;100252.25;5072182;28;20062;-82
2022/09/28 04:09:40;;;;;;;3.13;1.83;;;;;;;21.15;62.30;100243.41;5065755;28;20117;-82
2022/09/28 04:12:06;;;;;;;2.00;1.80;;;;;;;21.16;61.92;100245.19;5072316;28;20032;-83
2022/09/28 04:14:32;;;;;;;1.83;1.70;;;;;;;21.18;61.76;100253.16;5074709;28;20474;-83
2022/09/28 04:16:57;;;;;;;1.77;1.65;;;;;;;21.21;61.67;100264.69;5060824;28;20020;-81
2022/09/28 04:19:24;;;;;;;1.50;1.40;;;;;;;21.13;61.75;100258.47;5059409;28;20028;-83
2022/09/28 04:21:50;;;;;;;1.77;1.58;;;;;;;21.04;61.85;100246.06;5072486;28;20020;-84
2022/09/28 04:24:17;;;;;;;2.13;1.80;;;;;;;21.08;61.96;100258.44;5070036;28;20166;-83
2022/09/28 04:26:42;;;;;;;2.60;1.90;;;;;;;21.02;61.81;100246.91;5053664;28;20049;-83
2022/09/28 04:29:15;;;;;;;2.00;1.80;;;;;;;21.14;62.02;100268.19;5052750;28;20148;-82
2022/09/28 04:31:43;;;;;;;2.10;1.85;;;;;;;21.13;62.01;100279.69;5065905;28;20085;-81
2022/09/28 04:34:09;;;;;;;2.30;2.10;;;;;;;21.11;62.05;100276.16;5060388;28;20494;-81
2022/09/28 04:36:35;;;;;;;2.13;1.80;;;;;;;21.11;62.04;100284.13;5053247;28;20118;-81
2022/09/28 04:39:02;;;;;;;2.00;1.70;;;;;;;21.11;61.93;100290.31;5062459;28;20025;-80
2022/09/28 04:41:27;;;;;;;1.85;1.75;;;;;;;21.13;62.04;100280.56;5068734;28;20028;-81
2022/09/28 04:43:53;;;;;;;2.30;1.65;;;;;;;21.11;61.86;100284.13;5069591;28;20045;-81
2022/09/28 04:46:19;;;;;;;2.05;1.70;;;;;;;21.13;61.82;100285.88;5058374;28;20024;-82
2022/09/28 04:48:44;;;;;;;2.00;1.90;;;;;;;21.05;62.03;100271.69;5071689;28;20059;-81
2022/09/28 04:51:10;;;;;;;1.83;1.52;;;;;;;21.12;61.92;100291.19;5060392;28;20039;-82
2022/09/28 04:53:36;;;;;;;2.00;1.83;;;;;;;21.10;62.24;100288.56;5069678;28;20021;-81
2022/09/28 04:56:06;;;;;;;2.13;1.65;;;;;;;21.09;62.17;100286.75;5060620;28;20029;-81
2022/09/28 04:58:34;;;;;;;2.85;1.75;;;;;;;21.11;62.02;100285.00;5054974;28;20025;-80
2022/09/28 05:01:02;;;;;;;1.40;1.30;;;;;;;21.09;61.90;100293.84;5069502;28;20031;-81
2022/09/28 05:03:28;;;;;;;1.80;1.70;;;;;;;21.08;62.12;100292.06;5063607;28;20028;-80
2022/09/28 05:05:53;;;;;;;1.83;1.63;;;;;;;21.08;62.06;100303.59;5067846;28;20036;-80
2022/09/28 05:08:19;;;;;;;1.70;1.50;;;;;;;21.03;62.17;100296.47;5059608;28;20497;-80
2022/09/28 05:10:45;;;;;;;2.38;1.75;;;;;;;21.08;62.09;100307.97;5061506;28;20102;-80
2022/09/28 05:13:11;;;;;;;2.72;2.00;;;;;;;20.94;62.26;100286.72;5056850;28;20034;-80
2022/09/28 05:15:38;;;;;;;2.55;1.60;;;;;;;21.04;62.36;100309.75;5071347;28;20107;-81
2022/09/28 05:18:04;;;;;;;1.52;1.42;;;;;;;21.06;62.29;100310.66;5066938;28;20405;-80
2022/09/28 05:20:30;;;;;;;1.73;1.60;;;;;;;21.03;62.41;100312.41;5067796;28;20021;-83
2022/09/28 05:22:55;;;;;;;;;;;;;;;21.06;62.04;100318.63;5039760;28;20033;-81
2022/09/28 05:25:21;;;;;;;1.67;1.50;;;;;;;21.04;62.25;100317.72;5055642;28;19978;-82
2022/09/28 05:27:47;;;;;;;1.55;1.40;;;;;;;21.02;62.29;100313.28;5040638;28;20039;-81
2022/09/28 05:30:13;;;;;;;2.35;1.67;;;;;;;21.03;62.26;100312.41;5055387;28;20098;-81
2022/09/28 05:32:43;;;;;;;1.75;1.65;;;;;;;21.03;62.43;100315.06;5068996;28;20033;-81
2022/09/28 05:35:10;;;;;;;1.98;1.50;;;;;;;20.99;62.39;100318.56;5052759;28;20025;-81
2022/09/28 05:37:36;;;;;;;1.50;1.40;;;;;;;20.97;62.31;100309.72;5064382;28;20476;-81
2022/09/28 05:40:03;;;;;;;1.50;1.40;;;;;;;21.04;62.18;100312.41;5069888;28;20039;-82
2022/09/28 05:42:29;;;;;;;1.70;1.60;;;;;;;20.99;62.28;100300.00;5070588;28;20100;-82
2022/09/28 05:44:54;;;;;;;;;;;;;;;21.05;62.24;100308.88;5053543;28;20035;-81
2022/09/28 05:47:21;;;;;;;1.90;1.33;;;;;;;21.02;62.42;100322.16;5068859;28;19912;-81
2022/09/28 05:49:46;;;;;;;;;;;;;;;21.06;62.24;100315.06;5070697;28;20142;-82
2022/09/28 05:52:11;;;;;;;1.92;1.60;;;;;;;21.03;62.24;100320.38;5071023;28;19920;-81
2022/09/28 05:54:37;;;;;;;1.52;1.38;;;;;;;20.94;62.35;100311.47;5052914;28;20413;-81
2022/09/28 05:57:04;;;;;;;2.75;1.50;;;;;;;21.01;62.47;100327.44;5070491;28;20032;-82
2022/09/28 05:59:30;;;;;;;1.67;1.50;;;;;;;20.96;62.23;100318.59;5070280;28;20016;-81
2022/09/28 06:01:55;;;;;;;1.58;1.40;;;;;;;21.03;62.49;100331.00;5056224;28;20031;-81
2022/09/28 06:04:21;;;;;;;1.80;1.30;;;;;;;20.90;62.38;100308.81;5052658;28;20055;-82
2022/09/28 06:06:47;;;;;;;2.10;1.40;;;;;;;20.99;62.30;100324.75;5052045;28;20036;-82
2022/09/28 06:09:12;;;;;;;1.67;1.50;;;;;;;20.92;62.08;100309.72;5032532;28;20041;-82
2022/09/28 06:11:38;;;;;;;1.95;1.80;;;;;;;20.83;62.40;100307.91;5069068;28;20032;-82
2022/09/28 06:14:04;;;;;;;1.75;1.55;;;;;;;20.87;62.33;100315.00;5033399;28;20032;-81
2022/09/28 06:16:29;;;;;;;1.52;1.40;;;;;;;21.03;62.30;100341.59;5051375;28;20040;-82
2022/09/28 06:18:55;;;;;;;2.08;1.63;;;;;;;21.06;62.29;100341.59;5054560;28;20033;-82
2022/09/28 06:21:21;;;;;;;2.35;1.67;;;;;;;21.04;62.51;100353.97;5051598;28;20036;-81
2022/09/28 06:23:46;;;;;;;1.92;1.63;;;;;;;21.01;62.28;100336.28;5064699;28;20679;-81
2022/09/28 06:26:12;;;;;;;1.60;1.50;;;;;;;20.94;62.27;100324.75;5070252;28;20382;-82
2022/09/28 06:28:38;;;;;;;3.15;1.52;;;;;;;21.05;62.28;100350.47;5065451;28;20529;-82
2022/09/28 06:31:03;;;;;;;1.67;1.58;;;;;;;21.00;62.34;100334.53;5070472;28;20028;-82
2022/09/28 06:33:29;;;;;;;1.48;1.38;;;;;;;21.04;62.36;100354.91;5058507;28;20021;-82
2022/09/28 06:35:54;;;;;;;2.10;1.90;;;;;;;21.07;62.28;100362.84;5062273;28;20451;-82
2022/09/28 06:38:20;;;;;;;3.63;1.80;;;;;;;21.06;62.26;100357.53;5070124;28;20024;-82
2022/09/28 06:40:46;;;;;;;1.83;1.50;;;;;;;21.07;62.33;100367.28;5059058;28;20115;-82
2022/09/28 06:43:14;;;;;;;2.00;1.80;;;;;;;20.99;62.25;100348.66;5068111;28;20029;-81
2022/09/28 06:45:41;;;;;;;1.88;1.77;;;;;;;21.01;62.37;100351.34;5074319;28;20032;-81
2022/09/28 06:48:07;;;;;;;2.33;1.65;;;;;;;21.00;62.55;100358.41;5069937;28;20033;-82
2022/09/28 06:50:38;;;;;;;3.47;2.00;;;;;;;21.01;62.42;100364.59;5062977;28;20020;-83
2022/09/28 06:53:08;;;;;;;1.63;1.50;;;;;;;20.93;62.57;100345.97;5059232;28;20056;-84
2022/09/28 06:55:38;;;;;;;2.50;1.60;;;;;;;21.07;62.46;100361.97;5041925;28;20024;-84
2022/09/28 06:58:09;;;;;;;3.28;1.60;;;;;;;20.82;62.69;100329.13;5064355;28;20033;-84
2022/09/28 07:00:36;;;;;;;1.75;1.42;;;;;;;21.05;62.48;100366.41;5067332;28;20078;-85
2022/09/28 07:03:04;;;;;;;2.35;2.00;;;;;;;20.90;62.61;100344.19;5049878;28;20483;-85
2022/09/28 07:05:33;;;;;;;2.38;1.70;;;;;;;20.96;62.54;100347.78;5054381;28;20035;-84
2022/09/28 07:07:58;;;;;;;1.73;1.60;;;;;;;21.08;62.41;100355.78;5041239;28;20037;-85
2022/09/28 07:10:27;;;;;;;2.42;1.77;;;;;;;21.10;62.35;100360.22;5069440;28;20158;-84
2022/09/28 07:12:54;;;;;;;1.95;1.67;;;;;;;21.10;62.38;100349.63;5054784;28;20032;-85
2022/09/28 07:15:20;;;;;;;2.83;1.58;;;;;;;21.14;62.40;100358.47;5047125;28;20055;-85
2022/09/28 07:17:46;;;;;;;1.73;1.60;;;;;;;21.07;62.14;100352.25;5055064;28;20036;-84
2022/09/28 07:20:12;;;;;;;1.98;1.60;;;;;;;21.00;62.29;100345.13;5066910;28;20024;-85
2022/09/28 07:22:38;;;;;;;1.80;1.70;;;;;;;20.91;62.23;100324.75;5058211;28;20040;-86
2022/09/28 07:25:07;;;;;;;;;;;;;;;21.13;62.40;100357.56;5073971;28;20090;-86
2022/09/28 07:27:35;;;;;;;1.88;1.65;;;;;;;21.13;62.21;100354.91;5058180;28;19919;-84
2022/09/28 07:30:02;;;;;;;2.85;2.10;;;;;;;21.11;62.44;100353.16;5073194;28;20052;-84
2022/09/28 07:32:28;;;;;;;4.00;2.10;;;;;;;21.14;62.82;100355.81;5073211;28;20028;-84
2022/09/28 07:34:55;;;;;;;2.80;2.30;;;;;;;20.96;63.38;100337.16;5071098;28;20033;-84
2022/09/28 07:37:23;;;;;;;4.47;2.35;;;;;;;21.10;63.03;100365.53;5073319;28;20033;-84
2022/09/28 07:42:32;;;;;;;2.42;1.90;;;;;;;20.97;62.98;100329.19;5072916;28;20555;-84
2022/09/28 07:44:58;;;;;;;2.20;2.00;;;;;;;21.09;63.14;100345.16;5055014;28;20024;-83
2022/09/28 07:47:27;;;;;;;3.47;1.85;;;;;;;21.00;62.99;100323.03;5062028;28;20577;-83
2022/09/28 07:49:55;;;;;;;3.83;2.20;;;;;;;21.03;63.10;100329.22;5068839;28;20649;-84
2022/09/28 07:52:25;;;;;;;2.97;2.10;;;;;;;20.87;63.29;100324.72;5048482;28;20029;-84
2022/09/28 07:54:53;;;;;;;2.63;1.98;;;;;;;21.00;63.65;100341.59;5066793;28;20036;-84
2022/09/28 07:57:19;;;;;;;3.08;2.35;;;;;;;21.09;63.72;100355.78;5067589;28;20024;-84
2022/09/28 07:59:45;;;;;;;3.22;2.05;;;;;;;21.05;63.30;100335.41;5063731;28;20064;-83
2022/09/28 08:02:12;;;;;;;2.42;1.98;;;;;;;21.04;63.31;100332.75;5073006;28;20021;-83
2022/09/28 08:04:37;;;;;;;;;;;;;;;21.17;63.36;100339.91;5072890;28;20036;-83
2022/09/28 08:07:08;;;;;;;4.88;2.10;;;;;;;21.09;62.85;100331.00;5067605;28;20305;-84
2022/09/28 08:09:34;;;;;;;2.72;2.10;;;;;;;21.07;62.74;100323.03;5072241;28;20063;-84
2022/09/28 08:11:59;;;;;;;3.97;2.30;;;;;;;20.98;63.00;100315.03;5072496;28;20024;-84
2022/09/28 08:14:26;;;;;;;2.75;2.30;;;;;;;21.15;63.15;100344.31;5066514;28;20032;-86
2022/09/28 08:16:52;;;;;;;2.42;1.95;;;;;;;21.18;62.73;100346.97;5072375;28;20028;-85
2022/09/28 08:19:17;;;;;;;2.40;2.20;;;;;;;21.12;63.36;100345.19;5070971;28;20029;-84
2022/09/28 08:21:46;;;;;;;3.17;2.30;;;;;;;21.10;62.75;100344.31;5069412;28;20068;-85
2022/09/28 08:24:13;;;;;;;3.58;2.80;;;;;;;20.96;63.42;100326.53;5070781;28;20025;-86
2022/09/28 08:26:38;;;;;;;4.00;2.78;;;;;;;21.06;63.29;100330.97;5062982;28;20028;-85
2022/09/28 08:29:05;;;;;;;4.75;2.70;;;;;;;21.14;62.93;100351.41;5056875;28;20049;-85
2022/09/28 08:31:30;;;;;;;;;;;;;;;21.15;64.00;100358.47;5049070;28;20059;-85
2022/09/28 08:33:56;;;;;;;5.00;2.70;;;;;;;21.07;63.83;100349.59;5063321;28;20393;-86
2022/09/28 08:36:22;;;;;;;;;;;;;;;21.10;63.43;100352.28;5057072;28;20465;-86
2022/09/28 08:38:49;;;;;;;4.53;2.53;;;;;;;21.12;63.48;100350.50;5071987;28;20463;-85
2022/09/28 08:41:35;;;;;;;4.07;2.83;;;;;;;21.08;63.95;100347.81;5053232;28;20063;-85
2022/09/28 08:44:08;;;;;;;7.53;4.00;;;;;;;21.25;65.85;100339.91;5071688;28;20464;-85
2022/09/28 08:46:41;;;;;;;6.85;3.50;;;;;;;21.11;65.93;100339.88;5071524;28;20532;-85
2022/09/28 08:49:11;;;;;;;8.70;4.05;;;;;;;21.14;65.53;100345.19;5037016;28;20464;-81
2022/09/28 08:51:57;;;;;;;9.13;3.90;;;;;;;21.10;65.77;100339.00;5071818;28;20030;-85
2022/09/28 08:54:57;;;;;;;5.85;3.53;;;;;;;21.07;65.78;100341.63;5054175;28;20058;-85
2022/09/28 08:57:29;;;;;;;7.50;3.92;;;;;;;21.06;66.13;100336.28;5050695;28;20123;-85
2022/09/28 08:59:56;;;;;;;7.28;3.90;;;;;;;21.03;65.64;100329.22;5057688;28;20083;-85
2022/09/28 09:02:28;;;;;;;6.68;4.25;;;;;;;21.08;65.71;100334.53;5053693;28;20103;-85
2022/09/28 09:04:54;;;;;;;6.50;4.13;;;;;;;21.04;65.38;100325.69;5071736;28;20032;-85
2022/09/28 09:07:41;;;;;;;15.70;7.20;;;;;;;21.05;66.34;100335.41;5046863;28;20083;-85
2022/09/28 09:10:32;;;;;;;13.48;6.65;;;;;;;21.03;66.50;100334.53;5063991;28;20117;-84
2022/09/28 09:13:17;;;;;;;19.13;10.90;;;;;;;21.06;66.37;100331.91;5066914;28;20119;-84
2022/09/28 09:15:53;;;;;;;17.05;9.90;;;;;;;21.04;66.80;100338.06;5071023;28;20025;-84
2022/09/28 09:18:48;;;;;;;17.90;10.07;;;;;;;21.07;66.73;100338.09;5071667;28;20025;-85
2022/09/28 09:21:37;;;;;;;22.02;11.13;;;;;;;21.03;66.95;100337.19;5041592;28;20039;-85
2022/09/28 09:24:17;;;;;;;27.95;11.68;;;;;;;21.00;66.39;100331.88;5057284;28;20037;-85
2022/09/28 09:26:43;;;;;;;33.20;13.88;;;;;;;21.02;66.27;100334.50;5053627;28;20562;-85
2022/09/28 09:29:49;;;;;;;27.35;12.13;;;;;;;21.04;66.26;100340.72;5056766;28;20100;-85
2022/09/28 09:32:45;;;;;;;29.83;12.60;;;;;;;21.04;66.53;100349.59;5010689;28;20426;-85
2022/09/28 09:35:36;;;;;;;29.70;12.02;;;;;;;21.06;66.34;100345.16;5057341;28;20061;-85
2022/09/28 09:38:16;;;;;;;33.08;13.95;;;;;;;21.07;66.11;100341.63;5066828;28;20537;-85
2022/09/28 09:41:10;;;;;;;28.00;12.30;;;;;;;21.08;66.14;100339.84;5070874;28;20031;-86
2022/09/28 09:43:38;;;;;;;27.40;11.57;;;;;;;21.08;66.52;100339.84;5035806;28;20020;-86
2022/09/28 09:46:23;;;;;;;24.50;11.65;;;;;;;21.07;66.49;100336.31;5070824;28;20039;-86
2022/09/28 09:48:57;;;;;;;22.77;11.15;;;;;;;21.02;66.06;100327.47;5039411;28;20029;-87
2022/09/28 09:51:49;;;;;;;24.65;10.82;;;;;;;21.07;66.58;100322.16;5052266;28;20036;-86
2022/09/28 09:54:26;;;;;;;22.67;11.15;;;;;;;21.07;66.22;100327.47;5032708;28;20487;-86
2022/09/28 09:57:06;;;;;;;;;;;;;;;21.08;66.11;100324.81;5048931;28;20661;-85
2022/09/28 09:59:36;;;;;;;21.42;9.50;;;;;;;21.08;66.01;100323.91;5069031;28;19968;-85
2022/09/28 10:02:27;;;;;;;19.55;9.45;;;;;;;21.05;65.88;100310.66;5047292;28;20052;-86
2022/09/28 10:05:05;;;;;;;21.27;9.80;;;;;;;21.12;66.01;100312.44;5049391;28;20120;-86
2022/09/28 10:07:42;;;;;;;17.08;8.98;;;;;;;20.97;65.86;100301.75;5036348;28;20024;-86
2022/09/28 10:10:15;;;;;;;17.95;9.25;;;;;;;21.15;65.90;100318.66;5051766;28;20025;-85
2022/09/28 10:12:40;;;;;;;16.35;9.05;;;;;;;20.96;66.32;100287.59;5037916;28;20035;-85
2022/09/28 10:15:07;;;;;;;20.58;9.77;;;;;;;21.14;66.01;100315.97;5035906;28;20029;-86
2022/09/28 10:17:34;;;;;;;19.13;9.60;;;;;;;21.08;66.05;100306.25;5051875;28;20029;-85
2022/09/28 10:20:00;;;;;;;18.30;10.10;;;;;;;21.13;66.09;100315.09;5039903;28;20104;-84
2022/09/28 10:22:26;;;;;;;16.77;9.15;;;;;;;21.02;66.09;100292.94;5056899;28;20108;-85
2022/09/28 10:24:56;;;;;;;20.70;9.77;;;;;;;20.93;65.94;100274.31;5069783;28;20078;-85
2022/09/28 10:27:33;;;;;;;20.60;9.50;;;;;;;21.11;65.85;100303.59;5074494;28;20056;-86
2022/09/28 10:30:18;;;;;;;17.83;9.73;;;;;;;21.18;65.92;100307.13;5067096;28;20142;-85
2022/09/28 10:32:49;;;;;;;17.77;9.05;;;;;;;21.14;65.82;100300.03;5057560;28;20017;-86
2022/09/28 10:35:17;;;;;;;16.05;9.10;;;;;;;21.19;65.71;100308.03;5044384;28;20175;-85
2022/09/28 10:37:53;;;;;;;17.63;9.20;;;;;;;21.17;65.76;100301.81;5074597;28;20021;-86
2022/09/28 10:40:49;;;;;;;18.15;8.90;;;;;;;21.18;65.75;100300.94;5073122;28;20029;-86
2022/09/28 10:43:18;;;;;;;13.47;8.70;;;;;;;21.19;65.67;100305.38;5056372;28;20047;-86
2022/09/28 10:45:44;;;;;;;17.65;9.02;;;;;;;21.11;65.75;100290.31;5074280;28;20032;-85
2022/09/28 10:48:18;;;;;;;15.88;8.18;;;;;;;21.20;65.57;100289.44;5050574;28;20029;-86
2022/09/28 10:51:01;;;;;;;16.92;8.73;;;;;;;21.20;65.52;100294.75;5047916;28;20406;-85
2022/09/28 10:53:27;;;;;;;15.50;8.65;;;;;;;21.05;65.37;100260.19;5053178;28;20448;-85
2022/09/28 10:56:01;;;;;;;13.20;8.13;;;;;;;21.23;65.49;100289.47;5074149;28;20025;-86
2022/09/28 10:58:46;;;;;;;13.35;8.38;;;;;;;21.12;65.44;100276.16;5055810;28;20033;-85
2022/09/28 11:01:21;;;;;;;14.00;8.40;;;;;;;21.11;65.26;100266.41;5043757;28;20628;-86
2022/09/28 11:03:51;;;;;;;12.13;8.25;;;;;;;21.04;65.46;100255.75;5070243;28;20020;-84
2022/09/28 11:06:24;;;;;;;14.23;8.25;;;;;;;21.24;65.30;100290.34;5072178;28;20171;-86
2022/09/28 11:08:49;;;;;;;13.55;8.20;;;;;;;21.24;65.14;100285.03;5055650;28;20020;-86
2022/09/28 11:11:19;;;;;;;13.48;8.05;;;;;;;21.17;65.09;100270.88;5067409;28;20031;-84
2022/09/28 11:13:49;;;;;;;12.82;8.18;;;;;;;21.13;65.35;100262.00;5028607;28;20055;-86
2022/09/28 11:16:43;;;;;;;12.38;7.63;;;;;;;20.64;65.22;100178.69;5035842;28;20086;-86
2022/09/28 11:19:57;;;;;;;;;;;;;;;;;;;;;
2022/09/28 11:22:42;;;;;;;;;;;;;;;;;;;;;
2022/09/28 11:25:31;;;;;;;13.35;7.47;;;;;;;21.27;64.97;100274.41;5054334;28;20044;-86
2022/09/28 11:28:03;;;;;;;14.20;8.05;;;;;;;21.29;64.80;100273.56;5052501;28;20028;-86
2022/09/28 11:30:34;;;;;;;11.93;7.22;;;;;;;21.29;64.91;100257.63;5041901;28;20036;-86
2022/09/28 11:33:03;;;;;;;12.73;7.65;;;;;;;21.00;64.78;100206.22;5069332;28;20028;-84
2022/09/28 11:35:49;;;;;;;12.45;7.55;;;;;;;20.87;64.76;100173.44;5051605;28;20035;-86
2022/09/28 11:38:38;;;;;;;10.63;6.90;;;;;;;20.99;64.50;100181.44;5068180;28;20021;-85
2022/09/28 11:41:28;;;;;;;11.23;7.05;;;;;;;21.43;64.45;100252.34;5023637;28;20037;-84
2022/09/28 11:44:13;;;;;;;10.60;7.00;;;;;;;21.50;64.20;100255.91;5065810;28;20032;-84
2022/09/28 11:47:16;;;;;;;11.93;7.30;;;;;;;21.52;64.37;100248.81;5053461;28;20028;-83
2022/09/28 11:50:18;;;;;;;10.02;6.65;;;;;;;21.52;64.19;100251.47;5066387;28;20111;-82